sensor_id;sensor_type;location;lat;lon;timestamp;pressure;altitude;pressure_sealevel;temperature;humidity
15263;BME280;7733;51.554;13.590;2022-07-06T00:01:17;100926.97;;;20.11;52.65
15263;BME280;7733;51.554;13.590;2022-07-06T00:03:43;100928.81;;;20.09;53.53
15263;BME280;7733;51.554;13.590;2022-07-06T00:06:09;100929.56;;;19.72;54.86
15263;BME280;7733;51.554;13.590;2022-07-06T00:08:34;100921.75;;;20.28;53.46
15263;BME280;7733;51.554;13.590;2022-07-06T00:11:00;100925.47;;;20.45;53.18
15263;BME280;7733;51.554;13.590;2022-07-06T00:13:27;100938.72;;;20.65;53.09
15263;BME280;7733;51.554;13.590;2022-07-06T00:15:53;100933.47;;;20.24;54.58
15263;BME280;7733;51.554;13.590;2022-07-06T00:18:19;100944.78;;;20.29;55.11
15263;BME280;7733;51.554;13.590;2022-07-06T00:20:45;100941.88;;;20.73;53.28
15263;BME280;7733;51.554;13.590;2022-07-06T00:23:11;100953.69;;;20.49;54.81
15263;BME280;7733;51.554;13.590;2022-07-06T00:25:36;100950.09;;;20.50;55.23
15263;BME280;7733;51.554;13.590;2022-07-06T00:28:03;100953.53;;;19.92;57.49
15263;BME280;7733;51.554;13.590;2022-07-06T00:30:28;100941.06;;;20.13;56.68
15263;BME280;7733;51.554;13.590;2022-07-06T00:32:54;100947.94;;;20.58;55.06
15263;BME280;7733;51.554;13.590;2022-07-06T00:35:20;100941.47;;;20.63;55.13
15263;BME280;7733;51.554;13.590;2022-07-06T00:37:45;100933.59;;;20.79;54.56
15263;BME280;7733;51.554;13.590;2022-07-06T00:40:11;100920.78;;;20.50;56.05
15263;BME280;7733;51.554;13.590;2022-07-06T00:42:42;100908.72;;;20.79;54.81
15263;BME280;7733;51.554;13.590;2022-07-06T00:45:10;100895.47;;;20.77;55.06
15263;BME280;7733;51.554;13.590;2022-07-06T00:47:36;100892.25;;;20.71;55.71
15263;BME280;7733;51.554;13.590;2022-07-06T00:50:04;100887.34;;;20.61;56.35
15263;BME280;7733;51.554;13.590;2022-07-06T00:52:51;100873.00;;;20.83;55.40
15263;BME280;7733;51.554;13.590;2022-07-06T00:55:24;100865.50;;;20.72;55.54
15263;BME280;7733;51.554;13.590;2022-07-06T00:57:51;100868.31;;;20.69;56.04
15263;BME280;7733;51.554;13.590;2022-07-06T01:00:20;100877.97;;;20.53;56.80
15263;BME280;7733;51.554;13.590;2022-07-06T01:02:49;100873.78;;;19.89;59.93
15263;BME280;7733;51.554;13.590;2022-07-06T01:05:16;100876.63;;;20.44;57.08
15263;BME280;7733;51.554;13.590;2022-07-06T01:07:44;100882.34;;;19.96;59.04
15263;BME280;7733;51.554;13.590;2022-07-06T01:10:12;100872.09;;;20.07;58.51
15263;BME280;7733;51.554;13.590;2022-07-06T01:12:40;100873.53;;;19.75;59.48
15263;BME280;7733;51.554;13.590;2022-07-06T01:15:13;100871.06;;;19.70;60.21
15263;BME280;7733;51.554;13.590;2022-07-06T01:17:40;100879.06;;;19.70;60.76
15263;BME280;7733;51.554;13.590;2022-07-06T01:20:18;100877.25;;;19.91;59.66
15263;BME280;7733;51.554;13.590;2022-07-06T01:22:47;100890.25;;;20.18;59.23
15263;BME280;7733;51.554;13.590;2022-07-06T01:25:14;100880.47;;;19.37;62.11
15263;BME280;7733;51.554;13.590;2022-07-06T01:27:41;100879.91;;;19.08;63.72
15263;BME280;7733;51.554;13.590;2022-07-06T01:30:16;100872.59;;;19.56;61.39
15263;BME280;7733;51.554;13.590;2022-07-06T01:32:43;100890.75;;;19.46;62.15
15263;BME280;7733;51.554;13.590;2022-07-06T01:35:12;100890.16;;;19.18;63.22
15263;BME280;7733;51.554;13.590;2022-07-06T01:37:39;100891.97;;;19.59;61.61
15263;BME280;7733;51.554;13.590;2022-07-06T01:40:08;100891.84;;;19.40;62.38
15263;BME280;7733;51.554;13.590;2022-07-06T01:42:35;100889.84;;;19.67;61.17
15263;BME280;7733;51.554;13.590;2022-07-06T01:45:02;100900.56;;;19.24;62.85
15263;BME280;7733;51.554;13.590;2022-07-06T01:47:27;100896.63;;;19.32;63.01
15263;BME280;7733;51.554;13.590;2022-07-06T01:49:53;100903.81;;;19.30;62.57
15263;BME280;7733;51.554;13.590;2022-07-06T01:52:19;100890.84;;;19.01;63.61
15263;BME280;7733;51.554;13.590;2022-07-06T01:54:45;100905.41;;;19.34;62.73
15263;BME280;7733;51.554;13.590;2022-07-06T01:57:10;100908.00;;;19.36;62.42
15263;BME280;7733;51.554;13.590;2022-07-06T01:59:36;100907.25;;;18.90;65.56
15263;BME280;7733;51.554;13.590;2022-07-06T02:02:02;100920.94;;;19.01;65.46
15263;BME280;7733;51.554;13.590;2022-07-06T02:04:28;100899.59;;;19.04;66.17
15263;BME280;7733;51.554;13.590;2022-07-06T02:06:53;100905.47;;;19.33;64.27
15263;BME280;7733;51.554;13.590;2022-07-06T02:09:19;100902.31;;;19.03;67.02
15263;BME280;7733;51.554;13.590;2022-07-06T02:11:45;100897.72;;;18.61;68.70
15263;BME280;7733;51.554;13.590;2022-07-06T02:14:10;100902.78;;;18.91;66.81
15263;BME280;7733;51.554;13.590;2022-07-06T02:16:37;100893.34;;;18.83;68.37
15263;BME280;7733;51.554;13.590;2022-07-06T02:19:02;100903.03;;;18.63;69.46
15263;BME280;7733;51.554;13.590;2022-07-06T02:21:29;100901.72;;;18.49;70.68
15263;BME280;7733;51.554;13.590;2022-07-06T02:23:54;100896.00;;;18.83;69.16
15263;BME280;7733;51.554;13.590;2022-07-06T02:26:20;100890.03;;;19.21;66.07
15263;BME280;7733;51.554;13.590;2022-07-06T02:28:46;100902.16;;;19.28;66.13
15263;BME280;7733;51.554;13.590;2022-07-06T02:31:13;100899.03;;;19.38;64.47
15263;BME280;7733;51.554;13.590;2022-07-06T02:33:41;100894.56;;;18.51;70.05
15263;BME280;7733;51.554;13.590;2022-07-06T02:36:07;100903.53;;;18.26;72.49
15263;BME280;7733;51.554;13.590;2022-07-06T02:38:33;100897.41;;;18.23;72.46
15263;BME280;7733;51.554;13.590;2022-07-06T02:40:58;100900.19;;;18.89;68.47
15263;BME280;7733;51.554;13.590;2022-07-06T02:43:24;100896.28;;;18.76;68.67
15263;BME280;7733;51.554;13.590;2022-07-06T02:45:50;100901.19;;;18.40;70.63
15263;BME280;7733;51.554;13.590;2022-07-06T02:48:15;100909.56;;;18.06;72.67
15263;BME280;7733;51.554;13.590;2022-07-06T02:50:41;100912.88;;;17.62;74.52
15263;BME280;7733;51.554;13.590;2022-07-06T02:53:07;100923.75;;;17.28;77.01
15263;BME280;7733;51.554;13.590;2022-07-06T02:55:33;100920.97;;;17.31;75.97
15263;BME280;7733;51.554;13.590;2022-07-06T02:57:58;100915.66;;;17.58;73.81
15263;BME280;7733;51.554;13.590;2022-07-06T03:00:24;100929.88;;;16.75;78.28
15263;BME280;7733;51.554;13.590;2022-07-06T03:02:50;100928.59;;;16.88;78.93
15263;BME280;7733;51.554;13.590;2022-07-06T03:05:16;100937.09;;;16.97;79.67
15263;BME280;7733;51.554;13.590;2022-07-06T03:07:41;100926.72;;;16.62;82.20
15263;BME280;7733;51.554;13.590;2022-07-06T03:10:07;100930.28;;;17.17;79.27
15263;BME280;7733;51.554;13.590;2022-07-06T03:12:33;100928.34;;;16.95;80.45
15263;BME280;7733;51.554;13.590;2022-07-06T03:14:58;100930.13;;;17.23;78.65
15263;BME280;7733;51.554;13.590;2022-07-06T03:17:24;100941.69;;;16.92;80.63
15263;BME280;7733;51.554;13.590;2022-07-06T03:19:50;100942.00;;;16.82;81.65
15263;BME280;7733;51.554;13.590;2022-07-06T03:22:15;100941.63;;;16.64;83.26
15263;BME280;7733;51.554;13.590;2022-07-06T03:24:41;100954.31;;;16.53;84.16
15263;BME280;7733;51.554;13.590;2022-07-06T03:27:07;100954.88;;;16.94;82.09
15263;BME280;7733;51.554;13.590;2022-07-06T03:29:32;100945.97;;;16.68;83.54
15263;BME280;7733;51.554;13.590;2022-07-06T03:31:58;100941.91;;;17.13;81.24
15263;BME280;7733;51.554;13.590;2022-07-06T03:34:24;100937.91;;;16.71;85.13
15263;BME280;7733;51.554;13.590;2022-07-06T03:36:49;100940.91;;;16.89;83.55
15263;BME280;7733;51.554;13.590;2022-07-06T03:39:15;100940.44;;;17.04;82.45
15263;BME280;7733;51.554;13.590;2022-07-06T03:41:40;100940.06;;;16.57;85.87
15263;BME280;7733;51.554;13.590;2022-07-06T03:44:06;100946.97;;;16.92;84.44
15263;BME280;7733;51.554;13.590;2022-07-06T03:46:32;100954.13;;;16.59;86.91
15263;BME280;7733;51.554;13.590;2022-07-06T03:48:57;100948.19;;;16.82;84.94
15263;BME280;7733;51.554;13.590;2022-07-06T03:51:23;100957.59;;;16.63;84.96
15263;BME280;7733;51.554;13.590;2022-07-06T03:53:48;100947.59;;;16.72;83.25
15263;BME280;7733;51.554;13.590;2022-07-06T03:56:14;100953.34;;;16.87;81.86
15263;BME280;7733;51.554;13.590;2022-07-06T03:59:01;100956.50;;;16.70;82.24
15263;BME280;7733;51.554;13.590;2022-07-06T04:01:27;100954.38;;;16.83;81.21
15263;BME280;7733;51.554;13.590;2022-07-06T04:03:53;100956.78;;;16.59;81.27
15263;BME280;7733;51.554;13.590;2022-07-06T04:06:19;100957.09;;;16.80;79.97
15263;BME280;7733;51.554;13.590;2022-07-06T04:08:45;100948.97;;;16.86;79.31
15263;BME280;7733;51.554;13.590;2022-07-06T04:11:11;100946.13;;;16.92;78.20
15263;BME280;7733;51.554;13.590;2022-07-06T04:13:36;100949.72;;;16.89;77.68
15263;BME280;7733;51.554;13.590;2022-07-06T04:16:05;100947.41;;;16.79;78.00
15263;BME280;7733;51.554;13.590;2022-07-06T04:18:32;100938.50;;;17.36;75.34
15263;BME280;7733;51.554;13.590;2022-07-06T04:20:57;100946.91;;;17.23;74.84
15263;BME280;7733;51.554;13.590;2022-07-06T04:23:24;100951.56;;;17.15;74.88
15263;BME280;7733;51.554;13.590;2022-07-06T04:25:49;100962.91;;;16.61;77.58
15263;BME280;7733;51.554;13.590;2022-07-06T04:28:15;100972.03;;;16.51;78.17
15263;BME280;7733;51.554;13.590;2022-07-06T04:30:42;100969.66;;;16.73;75.29
15263;BME280;7733;51.554;13.590;2022-07-06T04:33:07;100958.56;;;16.90;74.14
15263;BME280;7733;51.554;13.590;2022-07-06T04:35:33;100961.47;;;16.81;73.64
15263;BME280;7733;51.554;13.590;2022-07-06T04:37:59;100955.28;;;17.10;71.92
15263;BME280;7733;51.554;13.590;2022-07-06T04:40:24;100967.97;;;16.98;71.78
15263;BME280;7733;51.554;13.590;2022-07-06T04:42:50;100960.31;;;17.17;69.72
15263;BME280;7733;51.554;13.590;2022-07-06T04:45:15;100956.97;;;17.39;68.92
15263;BME280;7733;51.554;13.590;2022-07-06T04:47:41;100970.88;;;17.19;69.31
15263;BME280;7733;51.554;13.590;2022-07-06T04:50:09;100982.28;;;17.22;70.04
15263;BME280;7733;51.554;13.590;2022-07-06T04:52:34;100974.94;;;17.30;68.77
15263;BME280;7733;51.554;13.590;2022-07-06T04:55:01;100983.22;;;17.20;68.10
15263;BME280;7733;51.554;13.590;2022-07-06T04:57:29;100979.41;;;17.28;67.04
15263;BME280;7733;51.554;13.590;2022-07-06T04:59:55;100984.03;;;17.50;66.39
15263;BME280;7733;51.554;13.590;2022-07-06T05:02:21;100979.75;;;17.72;65.38
15263;BME280;7733;51.554;13.590;2022-07-06T05:04:47;100962.50;;;17.85;64.86
15263;BME280;7733;51.554;13.590;2022-07-06T05:07:13;100971.13;;;17.92;64.44
15263;BME280;7733;51.554;13.590;2022-07-06T05:09:39;100976.41;;;18.17;63.88
15263;BME280;7733;51.554;13.590;2022-07-06T05:12:05;100975.72;;;17.87;64.88
15263;BME280;7733;51.554;13.590;2022-07-06T05:14:30;100980.41;;;17.79;64.71
15263;BME280;7733;51.554;13.590;2022-07-06T05:16:56;100977.88;;;18.01;64.13
15263;BME280;7733;51.554;13.590;2022-07-06T05:19:22;100975.94;;;18.06;63.34
15263;BME280;7733;51.554;13.590;2022-07-06T05:21:47;100974.44;;;18.23;63.44
15263;BME280;7733;51.554;13.590;2022-07-06T05:24:13;100978.81;;;18.00;63.34
15263;BME280;7733;51.554;13.590;2022-07-06T05:26:38;100971.03;;;18.43;62.19
15263;BME280;7733;51.554;13.590;2022-07-06T05:29:04;100978.41;;;18.35;61.16
15263;BME280;7733;51.554;13.590;2022-07-06T05:31:30;100993.22;;;18.42;60.92
15263;BME280;7733;51.554;13.590;2022-07-06T05:33:55;100993.25;;;18.66;60.12
15263;BME280;7733;51.554;13.590;2022-07-06T05:36:21;100993.09;;;18.20;60.71
15263;BME280;7733;51.554;13.590;2022-07-06T05:38:46;100993.97;;;17.96;61.35
15263;BME280;7733;51.554;13.590;2022-07-06T05:41:12;100999.63;;;17.87;60.96
15263;BME280;7733;51.554;13.590;2022-07-06T05:43:38;100984.31;;;17.69;61.60
15263;BME280;7733;51.554;13.590;2022-07-06T05:46:04;101008.97;;;17.97;61.63
15263;BME280;7733;51.554;13.590;2022-07-06T05:48:29;100994.47;;;18.07;60.74
15263;BME280;7733;51.554;13.590;2022-07-06T05:51:14;101009.03;;;17.96;61.07
15263;BME280;7733;51.554;13.590;2022-07-06T05:53:40;101001.75;;;18.02;61.14
15263;BME280;7733;51.554;13.590;2022-07-06T05:56:06;101012.63;;;18.19;60.33
15263;BME280;7733;51.554;13.590;2022-07-06T05:58:32;100998.75;;;18.36;60.62
15263;BME280;7733;51.554;13.590;2022-07-06T06:00:57;101003.25;;;18.34;60.72
15263;BME280;7733;51.554;13.590;2022-07-06T06:03:23;101003.06;;;18.39;59.93
15263;BME280;7733;51.554;13.590;2022-07-06T06:05:49;101007.25;;;18.21;59.41
15263;BME280;7733;51.554;13.590;2022-07-06T06:08:15;101011.91;;;18.14;59.61
15263;BME280;7733;51.554;13.590;2022-07-06T06:10:40;101012.63;;;18.44;58.75
15263;BME280;7733;51.554;13.590;2022-07-06T06:13:06;101014.22;;;18.25;58.63
15263;BME280;7733;51.554;13.590;2022-07-06T06:15:32;101015.59;;;18.35;58.65
15263;BME280;7733;51.554;13.590;2022-07-06T06:17:57;101011.22;;;18.58;58.60
15263;BME280;7733;51.554;13.590;2022-07-06T06:20:23;101007.25;;;18.71;58.24
15263;BME280;7733;51.554;13.590;2022-07-06T06:22:54;101012.72;;;18.90;58.54
15263;BME280;7733;51.554;13.590;2022-07-06T06:25:36;101026.88;;;18.90;58.75
15263;BME280;7733;51.554;13.590;2022-07-06T06:28:05;101008.28;;;18.90;58.08
15263;BME280;7733;51.554;13.590;2022-07-06T06:30:31;101023.59;;;18.83;57.75
15263;BME280;7733;51.554;13.590;2022-07-06T06:33:08;101019.59;;;18.72;56.93
15263;BME280;7733;51.554;13.590;2022-07-06T06:35:34;101018.25;;;18.35;58.12
15263;BME280;7733;51.554;13.590;2022-07-06T06:38:00;101018.75;;;18.46;57.69
15263;BME280;7733;51.554;13.590;2022-07-06T06:40:26;101021.22;;;18.76;57.00
15263;BME280;7733;51.554;13.590;2022-07-06T06:42:51;101023.81;;;18.52;57.92
15263;BME280;7733;51.554;13.590;2022-07-06T06:45:17;101019.16;;;18.84;56.73
15263;BME280;7733;51.554;13.590;2022-07-06T06:47:42;101022.88;;;19.02;56.30
15263;BME280;7733;51.554;13.590;2022-07-06T06:50:08;101029.31;;;18.96;55.79
15263;BME280;7733;51.554;13.590;2022-07-06T06:52:34;101020.06;;;19.28;54.79
15263;BME280;7733;51.554;13.590;2022-07-06T06:54:59;101032.53;;;19.04;53.24
15263;BME280;7733;51.554;13.590;2022-07-06T06:57:25;101028.34;;;19.21;52.77
15263;BME280;7733;51.554;13.590;2022-07-06T06:59:51;101028.41;;;19.19;53.11
15263;BME280;7733;51.554;13.590;2022-07-06T07:02:16;101033.06;;;18.91;53.37
15263;BME280;7733;51.554;13.590;2022-07-06T07:04:43;101030.31;;;19.15;52.85
15263;BME280;7733;51.554;13.590;2022-07-06T07:07:08;101027.38;;;19.45;51.76
15263;BME280;7733;51.554;13.590;2022-07-06T07:09:34;101031.47;;;19.32;52.20
15263;BME280;7733;51.554;13.590;2022-07-06T07:11:59;101031.31;;;19.35;52.52
15263;BME280;7733;51.554;13.590;2022-07-06T07:14:25;101037.22;;;19.43;52.47
15263;BME280;7733;51.554;13.590;2022-07-06T07:16:53;101034.09;;;19.55;52.51
15263;BME280;7733;51.554;13.590;2022-07-06T07:19:18;101036.44;;;19.63;51.56
15263;BME280;7733;51.554;13.590;2022-07-06T07:21:44;101035.97;;;19.52;50.63
15263;BME280;7733;51.554;13.590;2022-07-06T07:24:10;101047.47;;;19.30;51.65
15263;BME280;7733;51.554;13.590;2022-07-06T07:26:36;101054.13;;;19.19;50.66
15263;BME280;7733;51.554;13.590;2022-07-06T07:29:02;101045.25;;;19.41;51.04
15263;BME280;7733;51.554;13.590;2022-07-06T07:31:28;101043.81;;;19.33;50.54
15263;BME280;7733;51.554;13.590;2022-07-06T07:33:53;101047.28;;;19.35;49.72
15263;BME280;7733;51.554;13.590;2022-07-06T07:36:23;101040.69;;;19.45;49.37
15263;BME280;7733;51.554;13.590;2022-07-06T07:38:50;101040.81;;;19.86;47.99
15263;BME280;7733;51.554;13.590;2022-07-06T07:41:15;101043.50;;;19.64;47.64
15263;BME280;7733;51.554;13.590;2022-07-06T07:43:42;101046.81;;;19.47;47.24
15263;BME280;7733;51.554;13.590;2022-07-06T07:46:08;101043.31;;;19.68;47.05
15263;BME280;7733;51.554;13.590;2022-07-06T07:48:34;101054.75;;;19.70;46.52
15263;BME280;7733;51.554;13.590;2022-07-06T07:51:00;101053.50;;;19.57;46.78
15263;BME280;7733;51.554;13.590;2022-07-06T07:53:25;101049.69;;;19.64;47.05
15263;BME280;7733;51.554;13.590;2022-07-06T07:55:52;101059.28;;;19.68;47.68
15263;BME280;7733;51.554;13.590;2022-07-06T07:58:18;101054.88;;;19.89;48.00
15263;BME280;7733;51.554;13.590;2022-07-06T08:00:43;101036.16;;;19.91;47.51
15263;BME280;7733;51.554;13.590;2022-07-06T08:03:09;101044.53;;;20.02;47.87
15263;BME280;7733;51.554;13.590;2022-07-06T08:05:34;101044.16;;;20.11;47.47
15263;BME280;7733;51.554;13.590;2022-07-06T08:08:00;101041.13;;;20.41;47.37
15263;BME280;7733;51.554;13.590;2022-07-06T08:10:26;101038.94;;;20.50;46.59
15263;BME280;7733;51.554;13.590;2022-07-06T08:12:52;101038.81;;;20.72;46.72
15263;BME280;7733;51.554;13.590;2022-07-06T08:15:17;101034.84;;;20.81;46.84
15263;BME280;7733;51.554;13.590;2022-07-06T08:17:43;101038.84;;;20.31;45.58
15263;BME280;7733;51.554;13.590;2022-07-06T08:20:09;101036.66;;;20.41;45.83
15263;BME280;7733;51.554;13.590;2022-07-06T08:22:37;101038.44;;;20.61;45.65
15263;BME280;7733;51.554;13.590;2022-07-06T08:25:04;101032.97;;;20.64;46.08
15263;BME280;7733;51.554;13.590;2022-07-06T08:27:30;101022.91;;;20.71;45.72
15263;BME280;7733;51.554;13.590;2022-07-06T08:29:56;101019.53;;;20.86;45.94
15263;BME280;7733;51.554;13.590;2022-07-06T08:32:21;101021.41;;;21.03;45.26
15263;BME280;7733;51.554;13.590;2022-07-06T08:34:47;101035.19;;;21.31;44.78
15263;BME280;7733;51.554;13.590;2022-07-06T08:37:13;101034.72;;;21.40;45.03
15263;BME280;7733;51.554;13.590;2022-07-06T08:39:39;101033.28;;;20.95;44.67
15263;BME280;7733;51.554;13.590;2022-07-06T08:42:07;101029.69;;;20.96;39.28
15263;BME280;7733;51.554;13.590;2022-07-06T08:44:35;101042.81;;;20.82;39.99
15263;BME280;7733;51.554;13.590;2022-07-06T08:47:05;101032.44;;;20.56;40.57
15263;BME280;7733;51.554;13.590;2022-07-06T08:49:35;101051.38;;;20.50;41.23
15263;BME280;7733;51.554;13.590;2022-07-06T08:52:04;101041.97;;;20.61;41.15
15263;BME280;7733;51.554;13.590;2022-07-06T08:54:30;101037.47;;;20.82;41.89
15263;BME280;7733;51.554;13.590;2022-07-06T08:56:56;101046.41;;;21.19;41.27
15263;BME280;7733;51.554;13.590;2022-07-06T08:59:22;101044.75;;;21.54;41.51
15263;BME280;7733;51.554;13.590;2022-07-06T09:01:48;101050.47;;;21.46;41.50
15263;BME280;7733;51.554;13.590;2022-07-06T09:04:17;101046.28;;;21.03;43.14
15263;BME280;7733;51.554;13.590;2022-07-06T09:06:46;101039.50;;;21.34;42.64
15263;BME280;7733;51.554;13.590;2022-07-06T09:09:20;101034.56;;;21.79;40.94
15263;BME280;7733;51.554;13.590;2022-07-06T09:11:50;101040.38;;;21.70;41.43
15263;BME280;7733;51.554;13.590;2022-07-06T09:14:17;101048.22;;;21.37;41.74
15263;BME280;7733;51.554;13.590;2022-07-06T09:16:46;101041.06;;;21.19;42.07
15263;BME280;7733;51.554;13.590;2022-07-06T09:19:12;101037.19;;;21.45;41.79
15263;BME280;7733;51.554;13.590;2022-07-06T09:21:39;101045.75;;;20.95;42.91
15263;BME280;7733;51.554;13.590;2022-07-06T09:24:10;101050.22;;;21.13;42.99
15263;BME280;7733;51.554;13.590;2022-07-06T09:26:36;101044.34;;;21.62;42.36
15263;BME280;7733;51.554;13.590;2022-07-06T09:29:02;101035.94;;;21.52;42.24
15263;BME280;7733;51.554;13.590;2022-07-06T09:31:29;101037.47;;;21.39;42.46
15263;BME280;7733;51.554;13.590;2022-07-06T09:34:06;101037.06;;;21.29;42.03
15263;BME280;7733;51.554;13.590;2022-07-06T09:36:48;101045.34;;;21.04;42.66
15263;BME280;7733;51.554;13.590;2022-07-06T09:39:29;101035.16;;;21.12;41.53
15263;BME280;7733;51.554;13.590;2022-07-06T09:42:00;101044.41;;;20.86;42.68
15263;BME280;7733;51.554;13.590;2022-07-06T09:44:29;101045.03;;;20.91;42.42
15263;BME280;7733;51.554;13.590;2022-07-06T09:46:58;101034.28;;;20.93;42.69
15263;BME280;7733;51.554;13.590;2022-07-06T09:49:25;101022.97;;;20.88;41.92
15263;BME280;7733;51.554;13.590;2022-07-06T09:52:06;101026.13;;;21.52;40.74
15263;BME280;7733;51.554;13.590;2022-07-06T09:54:35;101026.06;;;22.07;40.72
15263;BME280;7733;51.554;13.590;2022-07-06T09:57:01;101041.16;;;21.72;40.77
15263;BME280;7733;51.554;13.590;2022-07-06T09:59:29;101037.97;;;21.09;41.35
15263;BME280;7733;51.554;13.590;2022-07-06T10:01:58;101039.88;;;21.62;41.59
15263;BME280;7733;51.554;13.590;2022-07-06T10:04:26;101033.06;;;21.19;41.90
15263;BME280;7733;51.554;13.590;2022-07-06T10:06:55;101037.75;;;21.14;42.73
15263;BME280;7733;51.554;13.590;2022-07-06T10:09:24;101025.16;;;21.36;42.78
15263;BME280;7733;51.554;13.590;2022-07-06T10:11:56;101031.19;;;21.40;42.57
15263;BME280;7733;51.554;13.590;2022-07-06T10:14:25;101024.56;;;21.48;42.38
15263;BME280;7733;51.554;13.590;2022-07-06T10:16:52;101043.97;;;21.52;42.83
15263;BME280;7733;51.554;13.590;2022-07-06T10:19:20;101028.47;;;21.22;42.22
15263;BME280;7733;51.554;13.590;2022-07-06T10:21:47;101042.41;;;21.29;42.33
15263;BME280;7733;51.554;13.590;2022-07-06T10:24:13;101042.44;;;21.09;42.43
15263;BME280;7733;51.554;13.590;2022-07-06T10:26:41;101040.94;;;21.03;42.52
15263;BME280;7733;51.554;13.590;2022-07-06T10:29:07;101038.59;;;20.77;42.56
15263;BME280;7733;51.554;13.590;2022-07-06T10:31:46;101040.66;;;20.90;42.11
15263;BME280;7733;51.554;13.590;2022-07-06T10:34:16;101045.47;;;20.82;42.68
15263;BME280;7733;51.554;13.590;2022-07-06T10:36:50;101036.47;;;21.04;41.90
15263;BME280;7733;51.554;13.590;2022-07-06T10:39:36;101023.41;;;21.16;41.81
15263;BME280;7733;51.554;13.590;2022-07-06T10:42:46;101027.25;;;21.66;41.55
15263;BME280;7733;51.554;13.590;2022-07-06T10:50:37;101025.50;;;21.10;40.97
15263;BME280;7733;51.554;13.590;2022-07-06T10:53:10;101036.28;;;21.27;41.02
15263;BME280;7733;51.554;13.590;2022-07-06T10:55:38;101028.03;;;21.13;41.09
15263;BME280;7733;51.554;13.590;2022-07-06T10:58:06;101024.41;;;21.14;41.54
15263;BME280;7733;51.554;13.590;2022-07-06T11:00:55;101035.16;;;20.93;41.18
15263;BME280;7733;51.554;13.590;2022-07-06T11:03:40;101048.34;;;20.96;41.42
15263;BME280;7733;51.554;13.590;2022-07-06T11:06:22;101031.84;;;21.07;41.31
15263;BME280;7733;51.554;13.590;2022-07-06T11:09:10;101033.69;;;21.25;41.26
15263;BME280;7733;51.554;13.590;2022-07-06T11:14:04;101031.41;;;21.54;39.89
15263;BME280;7733;51.554;13.590;2022-07-06T11:16:33;101010.56;;;22.14;38.33
15263;BME280;7733;51.554;13.590;2022-07-06T11:19:10;101004.06;;;22.53;36.75
15263;BME280;7733;51.554;13.590;2022-07-06T11:21:47;100985.78;;;22.61;36.38
15263;BME280;7733;51.554;13.590;2022-07-06T11:24:18;101013.06;;;22.85;34.98
15263;BME280;7733;51.554;13.590;2022-07-06T11:26:50;100997.50;;;22.58;36.05
15263;BME280;7733;51.554;13.590;2022-07-06T11:29:20;101006.59;;;23.04;35.86
15263;BME280;7733;51.554;13.590;2022-07-06T11:31:52;100997.59;;;23.21;33.94
15263;BME280;7733;51.554;13.590;2022-07-06T11:36:58;101001.59;;;22.81;34.08
15263;BME280;7733;51.554;13.590;2022-07-06T11:39:29;101004.44;;;22.29;34.74
15263;BME280;7733;51.554;13.590;2022-07-06T11:41:56;101003.72;;;22.26;35.85
15263;BME280;7733;51.554;13.590;2022-07-06T11:44:22;100999.34;;;22.07;35.79
15263;BME280;7733;51.554;13.590;2022-07-06T11:46:49;101006.41;;;22.08;36.89
15263;BME280;7733;51.554;13.590;2022-07-06T11:49:17;101001.03;;;21.74;38.37
15263;BME280;7733;51.554;13.590;2022-07-06T11:51:45;101009.34;;;22.02;38.42
15263;BME280;7733;51.554;13.590;2022-07-06T11:54:14;100999.06;;;21.77;38.45
15263;BME280;7733;51.554;13.590;2022-07-06T11:56:50;101009.59;;;21.98;38.13
15263;BME280;7733;51.554;13.590;2022-07-06T11:59:25;100994.75;;;22.27;37.71
15263;BME280;7733;51.554;13.590;2022-07-06T12:02:09;101001.38;;;22.53;37.13
15263;BME280;7733;51.554;13.590;2022-07-06T12:04:38;101009.28;;;22.38;36.80
15263;BME280;7733;51.554;13.590;2022-07-06T12:07:07;101004.31;;;22.48;36.68
15263;BME280;7733;51.554;13.590;2022-07-06T12:09:36;101002.91;;;22.41;36.83
15263;BME280;7733;51.554;13.590;2022-07-06T12:12:04;100995.22;;;22.17;36.74
15263;BME280;7733;51.554;13.590;2022-07-06T12:14:32;100993.44;;;22.51;36.62
15263;BME280;7733;51.554;13.590;2022-07-06T12:17:05;101000.78;;;22.48;36.25
15263;BME280;7733;51.554;13.590;2022-07-06T12:19:31;100993.47;;;22.84;36.45
15263;BME280;7733;51.554;13.590;2022-07-06T12:21:57;100976.44;;;23.01;36.38
15263;BME280;7733;51.554;13.590;2022-07-06T12:24:26;100986.28;;;23.16;35.30
15263;BME280;7733;51.554;13.590;2022-07-06T12:26:54;100969.47;;;23.14;35.03
15263;BME280;7733;51.554;13.590;2022-07-06T12:29:21;100985.78;;;23.10;35.20
15263;BME280;7733;51.554;13.590;2022-07-06T12:31:51;100985.88;;;23.08;35.22
15263;BME280;7733;51.554;13.590;2022-07-06T12:34:29;100985.88;;;22.92;34.79
15263;BME280;7733;51.554;13.590;2022-07-06T12:37:07;100989.41;;;23.24;34.58
15263;BME280;7733;51.554;13.590;2022-07-06T12:39:43;100976.75;;;22.63;35.23
15263;BME280;7733;51.554;13.590;2022-07-06T12:42:09;100983.91;;;22.30;35.84
15263;BME280;7733;51.554;13.590;2022-07-06T12:44:43;100986.63;;;22.45;35.98
15263;BME280;7733;51.554;13.590;2022-07-06T12:47:10;100981.84;;;22.35;36.12
15263;BME280;7733;51.554;13.590;2022-07-06T12:49:39;100982.22;;;22.44;35.94
15263;BME280;7733;51.554;13.590;2022-07-06T12:52:12;100983.97;;;22.61;35.76
15263;BME280;7733;51.554;13.590;2022-07-06T12:54:46;100979.56;;;23.09;35.48
15263;BME280;7733;51.554;13.590;2022-07-06T12:57:23;100987.09;;;22.69;35.99
15263;BME280;7733;51.554;13.590;2022-07-06T13:02:33;100989.66;;;22.55;35.04
15263;BME280;7733;51.554;13.590;2022-07-06T13:05:09;100982.50;;;23.04;34.48
15263;BME280;7733;51.554;13.590;2022-07-06T13:07:39;100975.56;;;23.48;34.44